createdAt,value
2018-12-20T00:00:41.253Z,6.20
2018-12-20T00:03:08.709Z,6.30
2018-12-20T00:05:36.607Z,6.40
2018-12-20T00:08:09.127Z,6.40
2018-12-20T00:13:09.104Z,6.60
2018-12-20T00:15:36.757Z,6.70
2018-12-20T00:18:10.840Z,6.80
2018-12-20T00:20:42.786Z,6.90
2018-12-20T00:23:10.413Z,6.90
2018-12-20T00:25:38.066Z,7.00
2018-12-20T00:28:14.075Z,7.00
2018-12-20T00:30:47.067Z,7.10
2018-12-20T00:33:18.725Z,7.20
2018-12-20T00:35:47.467Z,7.30
2018-12-20T00:38:18.078Z,7.30
2018-12-20T00:40:46.715Z,7.40
2018-12-20T00:43:19.741Z,7.30
2018-12-20T00:48:20.087Z,7.30
2018-12-20T00:50:47.707Z,7.30
2018-12-20T00:56:18.095Z,7.20
2018-12-20T00:58:47.223Z,7.20
2018-12-20T01:01:17.569Z,7.10
2018-12-20T01:03:48.156Z,7.10
2018-12-20T01:06:17.074Z,7.10
2018-12-20T01:08:44.644Z,7.00
2018-12-20T01:13:44.397Z,7.00
2018-12-20T01:16:12.149Z,6.90
2018-12-20T01:18:44.917Z,7.00
2018-12-20T01:21:14.170Z,7.00
2018-12-20T01:23:41.847Z,7.00
2018-12-20T01:26:11.985Z,7.00
2018-12-20T01:31:19.877Z,7.10
2018-12-20T01:33:53.691Z,7.10
2018-12-20T01:36:21.685Z,7.10
2018-12-20T01:38:51.611Z,7.00
2018-12-20T01:41:20.693Z,7.10
2018-12-20T01:46:21.173Z,7.00
2018-12-20T01:48:48.741Z,7.00
2018-12-20T01:51:22.330Z,7.00
2018-12-20T01:53:56.192Z,7.00
2018-12-20T01:56:28.412Z,7.10
2018-12-20T01:58:56.185Z,7.00
2018-12-20T02:01:24.667Z,7.00
2018-12-20T02:03:55.092Z,7.00
2018-12-20T02:06:22.583Z,7.00
2018-12-20T02:08:50.357Z,7.00
2018-12-20T02:11:22.923Z,7.00
2018-12-20T02:13:56.478Z,7.00
2018-12-20T02:19:04.656Z,7.10
2018-12-20T02:21:34.670Z,7.10
2018-12-20T02:24:03.856Z,7.00
2018-12-20T02:26:32.006Z,7.10
2018-12-20T02:31:31.686Z,7.10
2018-12-20T02:33:59.261Z,7.10
2018-12-20T02:36:32.580Z,7.20
2018-12-20T02:39:02.870Z,7.20
2018-12-20T02:41:32.383Z,7.20
2018-12-20T02:44:00.078Z,7.20
2018-12-20T02:46:32.638Z,7.30
2018-12-20T02:49:00.097Z,7.30
2018-12-20T02:51:29.188Z,7.30
2018-12-20T02:54:00.123Z,7.30
2018-12-20T02:56:32.893Z,7.40
2018-12-20T02:59:00.438Z,7.40
2018-12-20T03:01:28.736Z,7.40
2018-12-20T03:04:00.564Z,7.40
2018-12-20T03:06:32.396Z,7.30
2018-12-20T03:09:00.041Z,7.20
2018-12-20T03:11:27.696Z,7.20
2018-12-20T03:14:02.045Z,7.10
2018-12-20T03:16:35.241Z,7.10
2018-12-20T03:21:42.188Z,7.00
2018-12-20T03:24:09.950Z,7.00
2018-12-20T03:26:37.528Z,7.10
2018-12-20T03:29:11.149Z,7.20
2018-12-20T03:31:45.431Z,7.30
2018-12-20T03:34:19.916Z,7.40
2018-12-20T03:36:51.247Z,7.40
2018-12-20T03:39:18.885Z,7.40
2018-12-20T03:41:46.443Z,7.30
2018-12-20T03:44:22.394Z,7.30
2018-12-20T03:46:53.083Z,7.40
2018-12-20T03:54:26.714Z,7.20
2018-12-20T03:56:54.367Z,7.20
2018-12-20T03:59:28.413Z,7.30
2018-12-20T04:02:02.367Z,7.20
2018-12-20T04:04:36.413Z,7.20
2018-12-20T04:07:10.356Z,7.20
2018-12-20T04:09:42.851Z,7.20
2018-12-20T04:12:10.280Z,7.30
2018-12-20T04:14:37.766Z,7.30
2018-12-20T04:17:10.528Z,7.30
2018-12-20T04:22:10.326Z,7.30
2018-12-20T04:24:37.796Z,7.40
2018-12-20T04:27:10.907Z,7.30
2018-12-20T04:29:38.706Z,7.30
2018-12-20T04:32:07.884Z,7.20
2018-12-20T04:34:38.971Z,7.20
2018-12-20T04:37:09.500Z,7.20
2018-12-20T04:39:37.402Z,7.20
2018-12-20T04:42:05.573Z,7.20
2018-12-20T04:44:36.521Z,7.10
2018-12-20T04:47:04.478Z,7.20
2018-12-20T04:49:32.289Z,7.30
2018-12-20T04:52:02.273Z,7.20
2018-12-20T04:54:32.192Z,7.20
2018-12-20T04:56:59.849Z,7.20
2018-12-20T04:59:32.465Z,7.20
2018-12-20T05:02:05.350Z,7.20
2018-12-20T05:04:33.074Z,7.20
2018-12-20T05:07:00.788Z,7.20
2018-12-20T05:09:35.664Z,7.10
2018-12-20T05:12:09.511Z,7.10
2018-12-20T05:14:42.908Z,7.30
2018-12-20T05:17:17.640Z,7.20
2018-12-20T05:19:49.727Z,7.30
2018-12-20T05:22:22.616Z,7.30
2018-12-20T05:24:50.219Z,7.40
2018-12-20T05:27:19.435Z,7.30
2018-12-20T05:29:51.468Z,7.30
2018-12-20T05:32:24.703Z,7.20
2018-12-20T05:34:56.505Z,7.10
2018-12-20T05:37:24.190Z,7.10
2018-12-20T05:39:52.728Z,7.00
2018-12-20T05:42:25.055Z,7.00
2018-12-20T05:47:24.722Z,7.10
2018-12-20T05:49:52.225Z,7.20
2018-12-20T05:52:25.006Z,7.20
2018-12-20T05:54:52.889Z,7.20
2018-12-20T05:57:22.182Z,7.20
2018-12-20T05:59:56.039Z,7.20
2018-12-20T06:02:26.387Z,7.20
2018-12-20T06:04:58.926Z,7.20
2018-12-20T06:07:26.761Z,7.20
2018-12-20T06:09:54.585Z,7.30
2018-12-20T06:12:26.890Z,7.20
2018-12-20T06:17:35.221Z,7.20
2018-12-20T06:20:11.552Z,7.10
2018-12-20T06:22:46.426Z,7.30
2018-12-20T06:25:21.286Z,7.40
2018-12-20T06:27:51.455Z,7.50
2018-12-20T06:30:24.016Z,7.50
2018-12-20T06:32:51.580Z,7.50
2018-12-20T06:35:19.012Z,7.30
2018-12-20T06:37:51.594Z,7.20
2018-12-20T06:42:51.424Z,7.50
2018-12-20T06:45:18.911Z,7.60
2018-12-20T06:50:27.487Z,7.60
2018-12-20T06:52:59.812Z,7.50
2018-12-20T06:55:27.294Z,7.50
2018-12-20T06:57:54.782Z,7.50
2018-12-20T07:00:27.765Z,7.50
2018-12-20T07:03:00.593Z,7.50
2018-12-20T07:05:28.065Z,7.40
2018-12-20T07:07:55.545Z,7.40
2018-12-20T07:10:28.121Z,7.40
2018-12-20T07:13:01.073Z,7.40
2018-12-20T07:15:28.499Z,7.70
2018-12-20T07:17:56.722Z,8.00
2018-12-20T07:20:32.159Z,8.20
2018-12-20T07:23:03.019Z,8.20
2018-12-20T07:25:35.285Z,8.20
2018-12-20T07:28:02.763Z,8.40
2018-12-20T07:30:30.233Z,8.40
2018-12-20T07:33:02.526Z,8.20
2018-12-20T07:35:29.999Z,8.10
2018-12-20T07:37:57.614Z,7.80
2018-12-20T07:40:28.353Z,7.70
2018-12-20T07:42:56.723Z,7.60
2018-12-20T07:45:24.183Z,7.50
2018-12-20T07:47:56.342Z,7.50
2018-12-20T07:50:23.883Z,7.40
2018-12-20T07:52:51.369Z,7.40
2018-12-20T07:55:23.913Z,7.30
2018-12-20T07:57:51.370Z,7.30
2018-12-20T08:00:18.872Z,7.30
2018-12-20T08:02:52.179Z,7.40
2018-12-20T08:05:23.239Z,7.40
2018-12-20T08:07:50.665Z,7.40
2018-12-20T08:10:18.203Z,7.40
2018-12-20T08:12:50.572Z,7.60
2018-12-20T08:15:18.213Z,7.70
2018-12-20T08:17:45.734Z,7.70
2018-12-20T08:20:19.039Z,7.70
2018-12-20T08:22:53.175Z,7.70
2018-12-20T08:25:25.344Z,7.80
2018-12-20T08:27:52.865Z,7.70
2018-12-20T08:30:20.331Z,7.80
2018-12-20T08:32:52.644Z,7.70
2018-12-20T08:35:20.169Z,7.70
2018-12-20T08:37:48.390Z,7.70
2018-12-20T08:40:19.957Z,7.70
2018-12-20T08:42:49.606Z,7.80
2018-12-20T08:45:19.913Z,8.00
2018-12-20T08:47:47.344Z,8.00
2018-12-20T08:50:21.473Z,8.00
2018-12-20T08:52:53.708Z,8.00
2018-12-20T08:55:21.143Z,8.10
2018-12-20T08:57:48.631Z,8.00
2018-12-20T09:00:23.914Z,8.10
2018-12-20T09:02:56.515Z,8.10
2018-12-20T09:05:32.640Z,8.10
2018-12-20T09:08:07.148Z,8.00
2018-12-20T09:10:38.061Z,8.10
2018-12-20T09:13:10.154Z,8.10
2018-12-20T09:15:37.587Z,8.10
2018-12-20T09:18:05.124Z,8.10
2018-12-20T09:20:39.028Z,8.10
2018-12-20T09:23:11.433Z,8.10
2018-12-20T09:25:38.889Z,8.10
2018-12-20T09:28:06.376Z,8.20
2018-12-20T09:30:39.932Z,8.10
2018-12-20T09:33:15.240Z,8.10
2018-12-20T09:35:47.066Z,8.10
2018-12-20T09:38:20.301Z,8.20
2018-12-20T09:40:47.743Z,8.20
2018-12-20T09:43:15.231Z,8.30
2018-12-20T09:45:47.351Z,8.30
2018-12-20T09:48:14.785Z,8.30
2018-12-20T09:50:42.317Z,8.30
2018-12-20T09:53:16.752Z,8.40
2018-12-20T09:55:48.697Z,8.40
2018-12-20T09:58:21.092Z,8.40
2018-12-20T10:00:48.613Z,8.90
2018-12-20T10:03:16.091Z,8.80
2018-12-20T10:05:48.715Z,8.70
2018-12-20T10:08:16.151Z,8.60
2018-12-20T10:10:43.608Z,8.60
2018-12-20T10:13:15.121Z,8.60
2018-12-20T10:15:42.570Z,8.50
2018-12-20T10:18:10.027Z,8.60
2018-12-20T10:20:42.069Z,8.60
2018-12-20T10:23:09.549Z,8.70
2018-12-20T10:25:37.515Z,8.80
2018-12-20T10:28:09.579Z,8.80
2018-12-20T10:30:38.439Z,8.80
2018-12-20T10:33:07.815Z,8.90
2018-12-20T10:35:36.784Z,8.90
2018-12-20T10:38:09.687Z,8.80
2018-12-20T10:40:37.195Z,8.90
2018-12-20T10:43:04.763Z,8.90
2018-12-20T10:45:37.068Z,8.90
2018-12-20T10:50:37.021Z,9.00
2018-12-20T10:53:04.539Z,9.00
2018-12-20T10:55:33.373Z,9.10
2018-12-20T10:58:01.155Z,9.20
2018-12-20T11:00:32.795Z,9.20
2018-12-20T11:03:10.010Z,9.40
2018-12-20T11:05:44.535Z,9.40
2018-12-20T11:08:18.738Z,9.60
2018-12-20T11:10:46.949Z,9.60
2018-12-20T11:13:35.205Z,9.60
2018-12-20T11:16:02.628Z,9.60
2018-12-20T11:18:30.159Z,9.70
2018-12-20T11:21:00.678Z,9.70
2018-12-20T11:23:28.462Z,9.70
2018-12-20T11:25:55.951Z,9.70
2018-12-20T11:28:30.004Z,9.70
2018-12-20T11:31:02.641Z,9.70
2018-12-20T11:33:30.052Z,9.60
2018-12-20T11:35:58.425Z,9.60
2018-12-20T11:38:31.766Z,9.60
2018-12-20T11:41:04.508Z,9.60
2018-12-20T11:43:36.902Z,9.60
2018-12-20T11:46:04.385Z,9.70
2018-12-20T11:48:31.880Z,9.70
2018-12-20T11:51:06.129Z,9.70
2018-12-20T11:53:39.482Z,9.70
2018-12-20T11:56:11.417Z,9.60
2018-12-20T11:58:38.884Z,9.70
2018-12-20T12:01:06.397Z,9.70
2018-12-20T12:03:39.572Z,9.80
2018-12-20T12:06:11.548Z,9.80
2018-12-20T12:08:39.000Z,9.80
2018-12-20T12:11:06.516Z,9.80
2018-12-20T12:13:40.496Z,9.80
2018-12-20T12:16:13.017Z,9.90
2018-12-20T12:18:40.449Z,9.90
2018-12-20T12:21:08.035Z,10.00
2018-12-20T12:23:40.281Z,10.00
2018-12-20T12:26:07.778Z,10.10
2018-12-20T12:28:35.272Z,10.30
2018-12-20T12:31:08.755Z,10.20
2018-12-20T12:33:42.359Z,10.10
2018-12-20T12:36:14.112Z,10.00
2018-12-20T12:38:41.582Z,10.00
2018-12-20T12:41:09.655Z,9.90
2018-12-20T12:43:42.159Z,9.80
2018-12-20T12:46:10.973Z,9.90
2018-12-20T12:48:38.523Z,9.80
2018-12-20T12:51:09.961Z,9.80
2018-12-20T12:53:41.958Z,9.90
2018-12-20T12:56:09.447Z,9.90
2018-12-20T12:58:37.746Z,9.90
2018-12-20T13:01:09.574Z,9.80
2018-12-20T13:03:38.224Z,9.70
2018-12-20T13:06:05.707Z,9.70
2018-12-20T13:08:36.656Z,9.60
2018-12-20T13:11:09.067Z,9.60
2018-12-20T13:13:36.501Z,9.50
2018-12-20T13:16:04.507Z,9.50
2018-12-20T13:18:36.785Z,9.50
2018-12-20T13:21:09.051Z,9.40
2018-12-20T13:23:36.513Z,9.40
2018-12-20T13:26:04.328Z,9.40
2018-12-20T13:28:36.685Z,9.40
2018-12-20T13:31:04.313Z,9.30
2018-12-20T13:33:31.793Z,9.30
2018-12-20T13:36:04.418Z,9.30
2018-12-20T13:38:32.776Z,9.30
2018-12-20T13:41:00.292Z,9.40
2018-12-20T13:43:29.453Z,9.50
2018-12-20T13:45:56.933Z,9.50
2018-12-20T13:48:25.111Z,9.50
2018-12-20T13:50:57.509Z,9.50
2018-12-20T13:53:26.287Z,9.60
2018-12-20T13:55:55.054Z,9.60
2018-12-20T13:58:25.481Z,9.60
2018-12-20T14:00:57.575Z,9.60
2018-12-20T14:03:25.017Z,9.60
2018-12-20T14:05:53.491Z,9.60
2018-12-20T14:08:27.308Z,9.60
2018-12-20T14:10:59.106Z,9.60
2018-12-20T14:13:31.601Z,9.60
2018-12-20T14:15:59.107Z,9.60
2018-12-20T14:18:30.782Z,9.70
2018-12-20T14:21:00.764Z,9.60
2018-12-20T14:23:34.641Z,9.60
2018-12-20T14:26:06.551Z,9.60
2018-12-20T14:28:34.711Z,9.60
2018-12-20T14:31:02.273Z,9.60
2018-12-20T14:33:34.788Z,9.50
2018-12-20T14:38:34.404Z,9.50
2018-12-20T14:41:02.267Z,9.50
2018-12-20T14:43:34.441Z,9.50
2018-12-20T14:46:02.055Z,9.50
2018-12-20T14:48:29.669Z,9.50
2018-12-20T14:51:01.577Z,9.50
2018-12-20T14:53:32.843Z,9.50
2018-12-20T14:56:01.395Z,9.50
2018-12-20T14:58:28.880Z,9.50
2018-12-20T15:01:01.812Z,9.50
2018-12-20T15:03:29.305Z,9.60
2018-12-20T15:05:58.963Z,9.50
2018-12-20T15:08:29.900Z,9.50
2018-12-20T15:11:00.287Z,9.40
2018-12-20T15:13:29.031Z,9.50
2018-12-20T15:15:57.347Z,9.40
2018-12-20T15:18:29.060Z,9.40
2018-12-20T15:20:56.923Z,9.40
2018-12-20T15:23:24.455Z,9.50
2018-12-20T15:25:55.571Z,9.40
2018-12-20T15:28:23.221Z,9.40
2018-12-20T15:30:50.737Z,9.40
2018-12-20T15:33:23.616Z,9.40
2018-12-20T15:35:55.296Z,9.40
2018-12-20T15:38:22.903Z,9.40
2018-12-20T15:40:51.628Z,9.40
2018-12-20T15:43:24.025Z,9.40
2018-12-20T15:45:57.018Z,9.40
2018-12-20T15:48:24.470Z,9.40
2018-12-20T15:50:52.017Z,9.30
2018-12-20T15:53:25.103Z,9.40
2018-12-20T15:58:24.813Z,9.30
2018-12-20T16:00:52.332Z,9.30
2018-12-20T16:03:24.381Z,9.20
2018-12-20T16:05:52.457Z,9.20
2018-12-20T16:08:19.919Z,9.20
2018-12-20T16:10:52.342Z,9.20
2018-12-20T16:13:24.679Z,9.30
2018-12-20T16:15:52.402Z,9.30
2018-12-20T16:18:19.936Z,9.20
2018-12-20T16:20:53.271Z,9.20
2018-12-20T16:23:26.122Z,9.20
2018-12-20T16:25:53.657Z,9.10
2018-12-20T16:28:21.185Z,9.20
2018-12-20T16:30:55.659Z,9.20
2018-12-20T16:33:27.877Z,9.20
2018-12-20T16:35:56.032Z,9.20
2018-12-20T16:38:24.488Z,9.20
2018-12-20T16:41:01.669Z,9.10
2018-12-20T16:43:30.611Z,9.20
2018-12-20T16:46:03.330Z,9.20
2018-12-20T16:48:34.309Z,9.10
2018-12-20T16:51:02.747Z,9.20
2018-12-20T16:53:31.143Z,9.10
2018-12-20T16:56:02.680Z,9.20
2018-12-20T16:58:30.192Z,9.20
2018-12-20T17:00:57.665Z,9.10
2018-12-20T17:03:29.930Z,9.10
2018-12-20T17:05:57.462Z,9.10
2018-12-20T17:08:25.068Z,9.10
2018-12-20T17:10:56.312Z,9.10
2018-12-20T17:13:23.896Z,9.10
2018-12-20T17:15:53.138Z,9.10
2018-12-20T17:18:25.332Z,9.10
2018-12-20T17:20:57.343Z,9.10
2018-12-20T17:23:24.835Z,9.10
2018-12-20T17:25:53.931Z,9.10
2018-12-20T17:28:25.371Z,9.10
2018-12-20T17:33:29.387Z,9.10
2018-12-20T17:35:56.972Z,9.10
2018-12-20T17:38:27.892Z,9.10
2018-12-20T17:40:59.426Z,9.10
2018-12-20T17:43:27.005Z,9.00
2018-12-20T17:45:54.531Z,9.10
2018-12-20T17:48:29.396Z,9.10
2018-12-20T17:51:02.629Z,9.10
2018-12-20T17:53:36.341Z,9.20
2018-12-20T17:56:08.949Z,9.20
2018-12-20T18:01:08.803Z,9.10
2018-12-20T18:03:36.477Z,9.10
2018-12-20T18:06:08.319Z,9.10
2018-12-20T18:08:35.893Z,9.00
2018-12-20T18:11:03.350Z,9.00
2018-12-20T18:13:35.808Z,9.10
2018-12-20T18:16:04.924Z,9.10
2018-12-20T18:18:33.812Z,9.00
2018-12-20T18:21:04.502Z,9.00
2018-12-20T18:23:37.330Z,9.00
2018-12-20T18:26:09.802Z,9.00
2018-12-20T18:28:37.352Z,9.00
2018-12-20T18:31:04.893Z,9.10
2018-12-20T18:33:37.430Z,9.10
2018-12-20T18:38:37.750Z,9.00
2018-12-20T18:41:05.927Z,9.00
2018-12-20T18:43:39.926Z,9.10
2018-12-20T18:46:13.589Z,9.20
2018-12-20T18:48:45.269Z,9.10
2018-12-20T18:51:13.040Z,9.20
2018-12-20T18:53:40.654Z,9.20
2018-12-20T18:56:12.512Z,9.20
2018-12-20T19:01:12.632Z,9.10
2018-12-20T19:03:40.092Z,9.00
2018-12-20T19:06:10.218Z,8.90
2018-12-20T19:08:37.773Z,8.80
2018-12-20T19:11:07.485Z,8.70
2018-12-20T19:13:39.180Z,8.70
2018-12-20T19:16:07.666Z,8.70
2018-12-20T19:18:35.300Z,8.60
2018-12-20T19:21:07.197Z,8.60
2018-12-20T19:23:36.749Z,8.70
2018-12-20T19:26:07.199Z,8.70
2018-12-20T19:28:34.945Z,8.60
2018-12-20T19:31:07.201Z,8.50
2018-12-20T19:33:34.745Z,8.50
2018-12-20T19:36:02.387Z,8.40
2018-12-20T19:38:34.627Z,8.40
2018-12-20T19:41:03.799Z,8.50
2018-12-20T19:43:31.284Z,8.40
2018-12-20T19:46:01.934Z,8.40
2018-12-20T19:48:35.007Z,8.40
2018-12-20T19:51:02.488Z,8.40
2018-12-20T19:53:29.973Z,8.50
2018-12-20T19:56:02.801Z,8.50
2018-12-20T19:58:32.679Z,8.50
2018-12-20T20:01:01.833Z,8.40
2018-12-20T20:03:29.543Z,8.40
2018-12-20T20:06:01.736Z,8.50
2018-12-20T20:08:29.936Z,8.40
2018-12-20T20:10:57.377Z,8.50
2018-12-20T20:13:30.927Z,8.50
2018-12-20T20:16:05.120Z,8.50
2018-12-20T20:18:36.914Z,8.50
2018-12-20T20:21:04.637Z,8.50
2018-12-20T20:23:32.128Z,8.50
2018-12-20T20:26:03.575Z,8.50
2018-12-20T20:28:31.165Z,8.50
2018-12-20T20:30:59.296Z,8.50
2018-12-20T20:33:31.455Z,8.50
2018-12-20T20:38:32.219Z,8.50
2018-12-20T20:40:59.810Z,8.60
2018-12-20T20:43:33.693Z,8.60
2018-12-20T20:46:07.178Z,8.60
2018-12-20T20:48:41.825Z,8.60
2018-12-20T20:51:16.181Z,8.60
2018-12-20T20:53:48.085Z,8.60
2018-12-20T20:56:16.435Z,8.70
2018-12-20T20:58:44.452Z,8.70
2018-12-20T21:01:14.146Z,8.70
2018-12-20T21:03:41.616Z,8.70
2018-12-20T21:06:10.029Z,8.60
2018-12-20T21:08:40.838Z,8.60
2018-12-20T21:11:08.302Z,8.70
2018-12-20T21:13:39.412Z,8.70
2018-12-20T21:16:08.342Z,8.70
2018-12-20T21:18:36.013Z,8.70
2018-12-20T21:21:03.840Z,8.80
2018-12-20T21:23:34.204Z,8.80
2018-12-20T21:26:01.682Z,8.70
2018-12-20T21:28:29.224Z,8.80
2018-12-20T21:31:02.329Z,8.80
2018-12-20T21:33:36.220Z,8.80
2018-12-20T21:36:14.861Z,8.80
2018-12-20T21:38:44.862Z,8.80
2018-12-20T21:41:18.919Z,8.80
2018-12-20T21:43:51.833Z,8.90
2018-12-20T21:48:52.351Z,8.90
2018-12-20T21:51:19.811Z,8.90
2018-12-20T21:53:54.932Z,8.90
2018-12-20T21:56:26.831Z,8.80
2018-12-20T21:58:56.312Z,8.80
2018-12-20T22:01:25.083Z,8.80
2018-12-20T22:03:53.940Z,8.80
2018-12-20T22:06:21.861Z,8.80
2018-12-20T22:08:49.659Z,8.80
2018-12-20T22:11:20.627Z,8.80
2018-12-20T22:13:54.435Z,8.80
2018-12-20T22:18:55.233Z,8.70
2018-12-20T22:21:22.751Z,8.80
2018-12-20T22:23:56.025Z,8.80
2018-12-20T22:26:28.735Z,8.80
2018-12-20T22:28:56.389Z,8.70
2018-12-20T22:31:24.129Z,8.60
2018-12-20T22:33:56.442Z,8.70
2018-12-20T22:36:29.649Z,8.70
2018-12-20T22:38:57.155Z,8.70
2018-12-20T22:41:24.583Z,8.70
2018-12-20T22:43:56.933Z,8.70
2018-12-20T22:46:33.029Z,8.80
2018-12-20T22:49:03.961Z,8.70
2018-12-20T22:51:31.470Z,8.80
2018-12-20T22:53:58.972Z,8.80
2018-12-20T22:56:32.033Z,8.80
2018-12-20T23:01:35.738Z,8.90
2018-12-20T23:04:05.641Z,8.80
2018-12-20T23:06:33.133Z,8.80
2018-12-20T23:09:05.412Z,8.80
2018-12-20T23:11:33.207Z,8.80
2018-12-20T23:14:01.624Z,8.80
2018-12-20T23:16:33.364Z,8.80
2018-12-20T23:21:32.824Z,8.80
2018-12-20T23:24:00.296Z,8.80
2018-12-20T23:26:34.968Z,8.80
2018-12-20T23:29:09.653Z,8.80
2018-12-20T23:31:42.221Z,8.80
2018-12-20T23:37:06.341Z,8.80
2018-12-20T23:39:39.955Z,8.80
2018-12-20T23:42:12.905Z,8.70
2018-12-20T23:44:41.954Z,8.70
2018-12-20T23:47:09.423Z,8.60
2018-12-20T23:49:39.735Z,8.60
2018-12-20T23:54:39.748Z,8.60
2018-12-20T23:57:07.561Z,8.60
2018-12-20T23:59:41.549Z,8.60
